sensor_id;sensor_type;location;lat;lon;timestamp;temperature;humidity
44565;DHT22;30275;51.822;-0.326;2022-12-07T00:01:25;2.60;99.90
44565;DHT22;30275;51.822;-0.326;2022-12-07T00:03:53;2.50;99.90
44565;DHT22;30275;51.822;-0.326;2022-12-07T00:06:20;2.60;99.90
44565;DHT22;30275;51.822;-0.326;2022-12-07T00:08:47;2.60;99.90
44565;DHT22;30275;51.822;-0.326;2022-12-07T00:11:15;2.50;99.90
44565;DHT22;30275;51.822;-0.326;2022-12-07T00:13:41;2.50;99.90
44565;DHT22;30275;51.822;-0.326;2022-12-07T00:16:12;2.50;99.90
44565;DHT22;30275;51.822;-0.326;2022-12-07T00:18:39;2.50;99.90
44565;DHT22;30275;51.822;-0.326;2022-12-07T00:21:08;2.40;99.90
44565;DHT22;30275;51.822;-0.326;2022-12-07T00:23:35;2.40;99.90
44565;DHT22;30275;51.822;-0.326;2022-12-07T00:26:12;2.30;99.90
44565;DHT22;30275;51.822;-0.326;2022-12-07T00:28:38;2.30;99.90
44565;DHT22;30275;51.822;-0.326;2022-12-07T00:31:12;2.30;99.90
44565;DHT22;30275;51.822;-0.326;2022-12-07T00:33:38;2.30;99.90
44565;DHT22;30275;51.822;-0.326;2022-12-07T00:36:07;2.40;99.90
44565;DHT22;30275;51.822;-0.326;2022-12-07T00:38:35;2.30;99.90
44565;DHT22;30275;51.822;-0.326;2022-12-07T00:41:04;2.20;99.90
44565;DHT22;30275;51.822;-0.326;2022-12-07T00:43:30;2.20;99.90
44565;DHT22;30275;51.822;-0.326;2022-12-07T00:45:57;2.20;99.90
44565;DHT22;30275;51.822;-0.326;2022-12-07T00:48:23;2.20;99.90
44565;DHT22;30275;51.822;-0.326;2022-12-07T00:50:49;2.20;99.90
44565;DHT22;30275;51.822;-0.326;2022-12-07T00:53:15;2.20;99.90
44565;DHT22;30275;51.822;-0.326;2022-12-07T00:55:42;2.20;99.90
44565;DHT22;30275;51.822;-0.326;2022-12-07T00:58:08;2.30;99.90
44565;DHT22;30275;51.822;-0.326;2022-12-07T01:00:35;2.30;99.90
44565;DHT22;30275;51.822;-0.326;2022-12-07T01:03:02;2.30;99.90
44565;DHT22;30275;51.822;-0.326;2022-12-07T01:05:28;2.40;99.90
44565;DHT22;30275;51.822;-0.326;2022-12-07T01:07:54;2.50;99.90
44565;DHT22;30275;51.822;-0.326;2022-12-07T01:10:19;2.60;99.90
44565;DHT22;30275;51.822;-0.326;2022-12-07T01:12:45;2.70;99.90
44565;DHT22;30275;51.822;-0.326;2022-12-07T01:15:11;2.80;99.90
44565;DHT22;30275;51.822;-0.326;2022-12-07T01:17:36;2.90;99.90
44565;DHT22;30275;51.822;-0.326;2022-12-07T01:20:03;2.90;99.90
44565;DHT22;30275;51.822;-0.326;2022-12-07T01:22:29;2.90;99.90
44565;DHT22;30275;51.822;-0.326;2022-12-07T01:24:55;2.80;99.90
44565;DHT22;30275;51.822;-0.326;2022-12-07T01:27:20;2.90;99.90
44565;DHT22;30275;51.822;-0.326;2022-12-07T01:29:46;2.80;99.90
44565;DHT22;30275;51.822;-0.326;2022-12-07T01:32:12;2.80;99.90
44565;DHT22;30275;51.822;-0.326;2022-12-07T01:34:37;2.80;99.90
44565;DHT22;30275;51.822;-0.326;2022-12-07T01:37:04;2.80;99.90
44565;DHT22;30275;51.822;-0.326;2022-12-07T01:39:29;2.80;99.90
44565;DHT22;30275;51.822;-0.326;2022-12-07T01:41:55;2.90;99.90
44565;DHT22;30275;51.822;-0.326;2022-12-07T01:44:25;3.00;99.90
44565;DHT22;30275;51.822;-0.326;2022-12-07T01:46:57;2.80;99.90
44565;DHT22;30275;51.822;-0.326;2022-12-07T01:49:45;2.70;99.90
44565;DHT22;30275;51.822;-0.326;2022-12-07T01:52:27;2.70;99.90
44565;DHT22;30275;51.822;-0.326;2022-12-07T01:54:56;2.70;99.90
44565;DHT22;30275;51.822;-0.326;2022-12-07T01:57:24;2.60;99.90
44565;DHT22;30275;51.822;-0.326;2022-12-07T01:59:51;2.60;99.90
44565;DHT22;30275;51.822;-0.326;2022-12-07T02:02:23;2.70;99.90
44565;DHT22;30275;51.822;-0.326;2022-12-07T02:04:52;2.70;99.90
44565;DHT22;30275;51.822;-0.326;2022-12-07T02:07:19;2.80;99.90
44565;DHT22;30275;51.822;-0.326;2022-12-07T02:09:45;2.80;99.90
44565;DHT22;30275;51.822;-0.326;2022-12-07T02:12:10;2.80;99.90
44565;DHT22;30275;51.822;-0.326;2022-12-07T02:14:36;2.80;99.90
44565;DHT22;30275;51.822;-0.326;2022-12-07T02:17:25;2.90;99.90
44565;DHT22;30275;51.822;-0.326;2022-12-07T02:28:48;2.70;99.90
44565;DHT22;30275;51.822;-0.326;2022-12-07T02:31:08;2.80;99.90
44565;DHT22;30275;51.822;-0.326;2022-12-07T02:33:42;2.80;99.90
44565;DHT22;30275;51.822;-0.326;2022-12-07T02:36:20;2.80;99.90
44565;DHT22;30275;51.822;-0.326;2022-12-07T02:39:03;2.80;99.90
44565;DHT22;30275;51.822;-0.326;2022-12-07T02:41:48;2.90;99.90
44565;DHT22;30275;51.822;-0.326;2022-12-07T02:44:19;2.90;99.90
44565;DHT22;30275;51.822;-0.326;2022-12-07T02:47:04;2.90;99.90
44565;DHT22;30275;51.822;-0.326;2022-12-07T02:49:32;2.90;99.90
44565;DHT22;30275;51.822;-0.326;2022-12-07T02:51:58;2.80;99.90
44565;DHT22;30275;51.822;-0.326;2022-12-07T02:54:23;2.80;99.90
44565;DHT22;30275;51.822;-0.326;2022-12-07T02:57:02;2.80;99.90
44565;DHT22;30275;51.822;-0.326;2022-12-07T03:00:07;2.70;99.90
44565;DHT22;30275;51.822;-0.326;2022-12-07T03:06:02;2.60;99.90
44565;DHT22;30275;51.822;-0.326;2022-12-07T03:14:00;2.70;99.90
44565;DHT22;30275;51.822;-0.326;2022-12-07T03:16:50;2.70;99.90
44565;DHT22;30275;51.822;-0.326;2022-12-07T03:19:20;2.80;99.90
44565;DHT22;30275;51.822;-0.326;2022-12-07T03:21:57;2.80;99.90
44565;DHT22;30275;51.822;-0.326;2022-12-07T03:24:28;3.00;99.90
44565;DHT22;30275;51.822;-0.326;2022-12-07T03:27:13;2.80;99.90
44565;DHT22;30275;51.822;-0.326;2022-12-07T03:37:45;2.80;99.90
44565;DHT22;30275;51.822;-0.326;2022-12-07T03:40:35;2.90;99.90
44565;DHT22;30275;51.822;-0.326;2022-12-07T03:43:03;2.90;99.90
44565;DHT22;30275;51.822;-0.326;2022-12-07T03:45:44;2.90;99.90
44565;DHT22;30275;51.822;-0.326;2022-12-07T03:48:25;2.80;99.90
44565;DHT22;30275;51.822;-0.326;2022-12-07T03:51:00;2.70;99.90
44565;DHT22;30275;51.822;-0.326;2022-12-07T03:53:52;2.50;99.90
44565;DHT22;30275;51.822;-0.326;2022-12-07T03:56:20;2.30;99.90
44565;DHT22;30275;51.822;-0.326;2022-12-07T03:58:47;2.20;99.90
44565;DHT22;30275;51.822;-0.326;2022-12-07T04:01:13;2.20;99.90
44565;DHT22;30275;51.822;-0.326;2022-12-07T04:03:39;2.20;99.90
44565;DHT22;30275;51.822;-0.326;2022-12-07T04:06:05;2.30;99.90
44565;DHT22;30275;51.822;-0.326;2022-12-07T04:08:31;2.10;99.90
44565;DHT22;30275;51.822;-0.326;2022-12-07T04:10:57;2.10;99.90
44565;DHT22;30275;51.822;-0.326;2022-12-07T04:13:22;2.10;99.90
44565;DHT22;30275;51.822;-0.326;2022-12-07T04:15:48;2.00;99.90
44565;DHT22;30275;51.822;-0.326;2022-12-07T04:18:14;2.00;99.90
44565;DHT22;30275;51.822;-0.326;2022-12-07T04:20:39;2.20;99.90
44565;DHT22;30275;51.822;-0.326;2022-12-07T04:23:05;2.20;99.90
44565;DHT22;30275;51.822;-0.326;2022-12-07T04:25:30;2.30;99.90
44565;DHT22;30275;51.822;-0.326;2022-12-07T04:27:56;2.40;99.90
44565;DHT22;30275;51.822;-0.326;2022-12-07T04:30:22;2.40;99.90
44565;DHT22;30275;51.822;-0.326;2022-12-07T04:32:47;2.40;99.90
44565;DHT22;30275;51.822;-0.326;2022-12-07T04:35:13;2.40;99.90
44565;DHT22;30275;51.822;-0.326;2022-12-07T04:37:39;2.50;99.90
44565;DHT22;30275;51.822;-0.326;2022-12-07T04:40:09;2.50;99.90
44565;DHT22;30275;51.822;-0.326;2022-12-07T04:42:36;2.60;99.90
44565;DHT22;30275;51.822;-0.326;2022-12-07T04:45:02;2.70;99.90
44565;DHT22;30275;51.822;-0.326;2022-12-07T04:47:28;2.70;99.90
44565;DHT22;30275;51.822;-0.326;2022-12-07T04:49:53;2.80;99.90
44565;DHT22;30275;51.822;-0.326;2022-12-07T04:52:19;2.80;99.90
44565;DHT22;30275;51.822;-0.326;2022-12-07T04:54:44;2.70;99.90
44565;DHT22;30275;51.822;-0.326;2022-12-07T04:57:10;2.70;99.90
44565;DHT22;30275;51.822;-0.326;2022-12-07T04:59:36;2.70;99.90
44565;DHT22;30275;51.822;-0.326;2022-12-07T05:02:01;2.70;99.90
44565;DHT22;30275;51.822;-0.326;2022-12-07T05:04:27;2.60;99.90
44565;DHT22;30275;51.822;-0.326;2022-12-07T05:06:52;2.50;99.90
44565;DHT22;30275;51.822;-0.326;2022-12-07T05:09:18;2.50;99.90
44565;DHT22;30275;51.822;-0.326;2022-12-07T05:11:44;2.50;99.90
44565;DHT22;30275;51.822;-0.326;2022-12-07T05:14:11;2.40;99.90
44565;DHT22;30275;51.822;-0.326;2022-12-07T05:16:38;2.40;99.90
44565;DHT22;30275;51.822;-0.326;2022-12-07T05:19:04;2.20;99.90
44565;DHT22;30275;51.822;-0.326;2022-12-07T05:21:30;2.20;99.90
44565;DHT22;30275;51.822;-0.326;2022-12-07T05:23:56;2.10;99.90
44565;DHT22;30275;51.822;-0.326;2022-12-07T05:26:22;2.10;99.90
44565;DHT22;30275;51.822;-0.326;2022-12-07T05:28:54;1.90;99.90
44565;DHT22;30275;51.822;-0.326;2022-12-07T05:31:21;1.80;99.90
44565;DHT22;30275;51.822;-0.326;2022-12-07T05:33:47;1.80;99.90
44565;DHT22;30275;51.822;-0.326;2022-12-07T05:36:12;1.70;99.90
44565;DHT22;30275;51.822;-0.326;2022-12-07T05:38:38;1.60;99.90
44565;DHT22;30275;51.822;-0.326;2022-12-07T05:41:06;1.60;99.90
44565;DHT22;30275;51.822;-0.326;2022-12-07T05:43:32;1.50;99.90
44565;DHT22;30275;51.822;-0.326;2022-12-07T05:45:59;1.50;99.90
44565;DHT22;30275;51.822;-0.326;2022-12-07T05:48:25;1.40;99.90
44565;DHT22;30275;51.822;-0.326;2022-12-07T05:50:51;1.40;99.90
44565;DHT22;30275;51.822;-0.326;2022-12-07T05:53:18;1.30;99.90
44565;DHT22;30275;51.822;-0.326;2022-12-07T05:55:44;1.20;99.90
44565;DHT22;30275;51.822;-0.326;2022-12-07T05:58:10;1.20;99.90
44565;DHT22;30275;51.822;-0.326;2022-12-07T06:00:55;1.10;99.90
44565;DHT22;30275;51.822;-0.326;2022-12-07T06:03:21;1.10;99.90
44565;DHT22;30275;51.822;-0.326;2022-12-07T06:05:46;1.10;99.90
44565;DHT22;30275;51.822;-0.326;2022-12-07T06:08:12;1.10;99.90
44565;DHT22;30275;51.822;-0.326;2022-12-07T06:10:40;1.00;99.90
44565;DHT22;30275;51.822;-0.326;2022-12-07T06:13:07;1.00;99.90
44565;DHT22;30275;51.822;-0.326;2022-12-07T06:15:33;1.00;99.90
44565;DHT22;30275;51.822;-0.326;2022-12-07T06:18:00;0.90;99.90
44565;DHT22;30275;51.822;-0.326;2022-12-07T06:20:26;0.90;99.90
44565;DHT22;30275;51.822;-0.326;2022-12-07T06:22:51;0.90;99.90
44565;DHT22;30275;51.822;-0.326;2022-12-07T06:25:17;0.90;99.90
44565;DHT22;30275;51.822;-0.326;2022-12-07T06:27:42;0.90;99.90
44565;DHT22;30275;51.822;-0.326;2022-12-07T06:30:08;0.90;99.90
44565;DHT22;30275;51.822;-0.326;2022-12-07T06:32:35;0.90;99.90
44565;DHT22;30275;51.822;-0.326;2022-12-07T06:35:01;0.90;99.90
44565;DHT22;30275;51.822;-0.326;2022-12-07T06:37:27;0.90;99.90
44565;DHT22;30275;51.822;-0.326;2022-12-07T06:39:52;0.90;99.90
44565;DHT22;30275;51.822;-0.326;2022-12-07T06:42:18;0.90;99.90
44565;DHT22;30275;51.822;-0.326;2022-12-07T06:44:43;0.80;99.90
44565;DHT22;30275;51.822;-0.326;2022-12-07T06:47:09;0.80;99.90
44565;DHT22;30275;51.822;-0.326;2022-12-07T06:49:35;0.70;99.90
44565;DHT22;30275;51.822;-0.326;2022-12-07T06:52:00;0.80;99.90
44565;DHT22;30275;51.822;-0.326;2022-12-07T06:54:26;0.70;99.90
44565;DHT22;30275;51.822;-0.326;2022-12-07T06:56:52;0.70;99.90
44565;DHT22;30275;51.822;-0.326;2022-12-07T06:59:18;0.80;99.90
44565;DHT22;30275;51.822;-0.326;2022-12-07T07:01:43;0.70;99.90
44565;DHT22;30275;51.822;-0.326;2022-12-07T07:04:09;0.80;99.90
44565;DHT22;30275;51.822;-0.326;2022-12-07T07:06:35;0.90;99.90
44565;DHT22;30275;51.822;-0.326;2022-12-07T07:09:00;0.90;99.90
44565;DHT22;30275;51.822;-0.326;2022-12-07T07:11:27;0.80;99.90
44565;DHT22;30275;51.822;-0.326;2022-12-07T07:13:52;0.80;99.90
44565;DHT22;30275;51.822;-0.326;2022-12-07T07:16:19;0.80;99.90
44565;DHT22;30275;51.822;-0.326;2022-12-07T07:18:44;0.80;99.90
44565;DHT22;30275;51.822;-0.326;2022-12-07T07:21:10;0.70;99.90
44565;DHT22;30275;51.822;-0.326;2022-12-07T07:23:36;0.70;99.90
44565;DHT22;30275;51.822;-0.326;2022-12-07T07:26:01;0.70;99.90
44565;DHT22;30275;51.822;-0.326;2022-12-07T07:28:27;0.80;99.90
44565;DHT22;30275;51.822;-0.326;2022-12-07T07:30:53;0.80;99.90
44565;DHT22;30275;51.822;-0.326;2022-12-07T07:33:18;0.70;99.90
44565;DHT22;30275;51.822;-0.326;2022-12-07T07:35:44;0.70;99.90
44565;DHT22;30275;51.822;-0.326;2022-12-07T07:38:09;0.70;99.90
44565;DHT22;30275;51.822;-0.326;2022-12-07T07:40:35;0.60;99.90
44565;DHT22;30275;51.822;-0.326;2022-12-07T07:43:02;0.70;99.90
44565;DHT22;30275;51.822;-0.326;2022-12-07T07:45:28;0.70;99.90
44565;DHT22;30275;51.822;-0.326;2022-12-07T07:47:54;0.70;99.90
44565;DHT22;30275;51.822;-0.326;2022-12-07T07:50:20;0.60;99.90
44565;DHT22;30275;51.822;-0.326;2022-12-07T07:52:46;0.60;99.90
44565;DHT22;30275;51.822;-0.326;2022-12-07T07:55:12;0.70;99.90
44565;DHT22;30275;51.822;-0.326;2022-12-07T07:57:39;0.70;99.90
44565;DHT22;30275;51.822;-0.326;2022-12-07T08:00:10;0.70;99.90
44565;DHT22;30275;51.822;-0.326;2022-12-07T08:02:36;0.80;99.90
44565;DHT22;30275;51.822;-0.326;2022-12-07T08:05:02;0.80;99.90
44565;DHT22;30275;51.822;-0.326;2022-12-07T08:07:28;0.80;99.90
44565;DHT22;30275;51.822;-0.326;2022-12-07T08:09:53;0.90;99.90
44565;DHT22;30275;51.822;-0.326;2022-12-07T08:12:19;0.90;99.90
44565;DHT22;30275;51.822;-0.326;2022-12-07T08:14:45;0.90;99.90
44565;DHT22;30275;51.822;-0.326;2022-12-07T08:17:11;0.90;99.90
44565;DHT22;30275;51.822;-0.326;2022-12-07T08:19:37;1.10;99.90
44565;DHT22;30275;51.822;-0.326;2022-12-07T08:22:03;1.10;99.90
44565;DHT22;30275;51.822;-0.326;2022-12-07T08:24:29;1.20;99.90
44565;DHT22;30275;51.822;-0.326;2022-12-07T08:26:54;1.40;99.90
44565;DHT22;30275;51.822;-0.326;2022-12-07T08:29:20;1.60;99.90
44565;DHT22;30275;51.822;-0.326;2022-12-07T08:31:46;1.80;99.90
44565;DHT22;30275;51.822;-0.326;2022-12-07T08:34:12;1.90;99.90
44565;DHT22;30275;51.822;-0.326;2022-12-07T08:36:38;2.10;99.90
44565;DHT22;30275;51.822;-0.326;2022-12-07T08:39:04;2.20;99.90
44565;DHT22;30275;51.822;-0.326;2022-12-07T08:41:30;2.30;99.90
44565;DHT22;30275;51.822;-0.326;2022-12-07T08:43:56;2.40;99.90
44565;DHT22;30275;51.822;-0.326;2022-12-07T08:46:26;2.50;99.90
44565;DHT22;30275;51.822;-0.326;2022-12-07T08:49:01;2.50;99.90
44565;DHT22;30275;51.822;-0.326;2022-12-07T08:51:28;2.80;99.90
44565;DHT22;30275;51.822;-0.326;2022-12-07T08:53:54;2.80;99.90
44565;DHT22;30275;51.822;-0.326;2022-12-07T08:56:21;2.90;99.90
44565;DHT22;30275;51.822;-0.326;2022-12-07T08:58:47;3.10;99.90
44565;DHT22;30275;51.822;-0.326;2022-12-07T09:01:13;3.30;99.90
44565;DHT22;30275;51.822;-0.326;2022-12-07T09:03:39;3.60;99.90
44565;DHT22;30275;51.822;-0.326;2022-12-07T09:06:05;3.90;99.90
44565;DHT22;30275;51.822;-0.326;2022-12-07T09:08:36;4.30;99.90
44565;DHT22;30275;51.822;-0.326;2022-12-07T09:11:04;4.60;99.90
44565;DHT22;30275;51.822;-0.326;2022-12-07T09:13:30;5.40;99.90
44565;DHT22;30275;51.822;-0.326;2022-12-07T09:15:55;6.30;99.90
44565;DHT22;30275;51.822;-0.326;2022-12-07T09:18:21;7.00;99.90
44565;DHT22;30275;51.822;-0.326;2022-12-07T09:20:47;7.50;99.90
44565;DHT22;30275;51.822;-0.326;2022-12-07T09:23:12;7.70;99.90
44565;DHT22;30275;51.822;-0.326;2022-12-07T09:25:38;7.60;99.90
44565;DHT22;30275;51.822;-0.326;2022-12-07T09:28:03;7.80;99.90
44565;DHT22;30275;51.822;-0.326;2022-12-07T09:30:29;8.70;99.90
44565;DHT22;30275;51.822;-0.326;2022-12-07T09:32:56;9.90;99.90
44565;DHT22;30275;51.822;-0.326;2022-12-07T09:35:23;10.00;99.90
44565;DHT22;30275;51.822;-0.326;2022-12-07T09:37:49;10.80;99.90
44565;DHT22;30275;51.822;-0.326;2022-12-07T09:40:17;11.90;99.60
44565;DHT22;30275;51.822;-0.326;2022-12-07T09:42:47;12.20;97.30
44565;DHT22;30275;51.822;-0.326;2022-12-07T09:45:25;12.20;97.60
44565;DHT22;30275;51.822;-0.326;2022-12-07T09:47:52;12.50;96.70
44565;DHT22;30275;51.822;-0.326;2022-12-07T09:50:26;12.80;96.30
44565;DHT22;30275;51.822;-0.326;2022-12-07T09:52:53;12.80;95.70
44565;DHT22;30275;51.822;-0.326;2022-12-07T09:55:28;12.40;96.10
44565;DHT22;30275;51.822;-0.326;2022-12-07T09:57:54;13.40;95.20
44565;DHT22;30275;51.822;-0.326;2022-12-07T10:00:22;14.20;93.80
44565;DHT22;30275;51.822;-0.326;2022-12-07T10:02:59;15.20;92.70
44565;DHT22;30275;51.822;-0.326;2022-12-07T10:05:38;15.90;91.30
44565;DHT22;30275;51.822;-0.326;2022-12-07T10:08:07;16.10;90.70
44565;DHT22;30275;51.822;-0.326;2022-12-07T10:10:35;15.60;90.40
44565;DHT22;30275;51.822;-0.326;2022-12-07T10:13:11;15.30;91.20
44565;DHT22;30275;51.822;-0.326;2022-12-07T10:15:44;14.30;91.10
44565;DHT22;30275;51.822;-0.326;2022-12-07T10:18:38;13.70;92.20
44565;DHT22;30275;51.822;-0.326;2022-12-07T10:23:37;13.60;92.70
44565;DHT22;30275;51.822;-0.326;2022-12-07T10:28:54;13.90;92.50
44565;DHT22;30275;51.822;-0.326;2022-12-07T10:31:22;13.50;92.50
44565;DHT22;30275;51.822;-0.326;2022-12-07T10:33:57;13.40;92.90
44565;DHT22;30275;51.822;-0.326;2022-12-07T10:36:26;12.60;93.50
44565;DHT22;30275;51.822;-0.326;2022-12-07T10:39:20;12.40;94.20
44565;DHT22;30275;51.822;-0.326;2022-12-07T10:42:03;12.20;94.10
44565;DHT22;30275;51.822;-0.326;2022-12-07T10:44:31;12.90;94.20
44565;DHT22;30275;51.822;-0.326;2022-12-07T10:49:43;11.40;95.50
44565;DHT22;30275;51.822;-0.326;2022-12-07T10:52:25;11.00;96.50
44565;DHT22;30275;51.822;-0.326;2022-12-07T11:00:43;11.00;97.00
44565;DHT22;30275;51.822;-0.326;2022-12-07T11:05:42;10.80;97.40
44565;DHT22;30275;51.822;-0.326;2022-12-07T11:21:57;12.40;94.50
44565;DHT22;30275;51.822;-0.326;2022-12-07T11:24:40;11.90;94.80
44565;DHT22;30275;51.822;-0.326;2022-12-07T11:27:43;12.60;95.30
44565;DHT22;30275;51.822;-0.326;2022-12-07T11:30:50;12.50;95.10
44565;DHT22;30275;51.822;-0.326;2022-12-07T11:33:30;11.90;95.50
44565;DHT22;30275;51.822;-0.326;2022-12-07T11:38:44;11.00;96.70
44565;DHT22;30275;51.822;-0.326;2022-12-07T11:41:12;10.80;97.50
44565;DHT22;30275;51.822;-0.326;2022-12-07T11:44:00;10.80;98.00
44565;DHT22;30275;51.822;-0.326;2022-12-07T11:46:45;11.40;96.90
44565;DHT22;30275;51.822;-0.326;2022-12-07T11:49:23;11.00;97.60
44565;DHT22;30275;51.822;-0.326;2022-12-07T11:51:54;11.30;98.20
44565;DHT22;30275;51.822;-0.326;2022-12-07T11:54:32;11.40;98.00
44565;DHT22;30275;51.822;-0.326;2022-12-07T11:57:04;11.50;97.90
44565;DHT22;30275;51.822;-0.326;2022-12-07T11:59:40;11.00;97.90
44565;DHT22;30275;51.822;-0.326;2022-12-07T12:02:16;11.20;98.10
44565;DHT22;30275;51.822;-0.326;2022-12-07T12:07:22;12.60;95.50
44565;DHT22;30275;51.822;-0.326;2022-12-07T12:20:51;14.00;93.30
44565;DHT22;30275;51.822;-0.326;2022-12-07T12:23:44;13.90;93.20
44565;DHT22;30275;51.822;-0.326;2022-12-07T12:33:58;11.80;95.50
44565;DHT22;30275;51.822;-0.326;2022-12-07T12:47:03;11.90;96.70
44565;DHT22;30275;51.822;-0.326;2022-12-07T12:49:38;11.60;96.70
44565;DHT22;30275;51.822;-0.326;2022-12-07T12:55:11;11.50;97.00
44565;DHT22;30275;51.822;-0.326;2022-12-07T12:57:38;11.60;97.10
44565;DHT22;30275;51.822;-0.326;2022-12-07T13:02:50;12.30;96.70
44565;DHT22;30275;51.822;-0.326;2022-12-07T13:05:25;11.70;96.40
44565;DHT22;30275;51.822;-0.326;2022-12-07T13:07:56;10.20;98.00
44565;DHT22;30275;51.822;-0.326;2022-12-07T13:20:55;7.10;99.90
44565;DHT22;30275;51.822;-0.326;2022-12-07T13:26:20;6.40;99.90
44565;DHT22;30275;51.822;-0.326;2022-12-07T13:29:03;6.50;99.90
44565;DHT22;30275;51.822;-0.326;2022-12-07T13:31:35;6.50;99.90
44565;DHT22;30275;51.822;-0.326;2022-12-07T13:34:04;6.60;99.90
44565;DHT22;30275;51.822;-0.326;2022-12-07T13:36:33;6.50;99.90
44565;DHT22;30275;51.822;-0.326;2022-12-07T13:39:22;6.30;99.90
44565;DHT22;30275;51.822;-0.326;2022-12-07T13:41:53;5.80;99.90
44565;DHT22;30275;51.822;-0.326;2022-12-07T13:44:20;5.70;99.90
44565;DHT22;30275;51.822;-0.326;2022-12-07T13:49:18;5.70;99.90
44565;DHT22;30275;51.822;-0.326;2022-12-07T13:51:43;5.40;99.90
44565;DHT22;30275;51.822;-0.326;2022-12-07T13:54:11;5.40;99.90
44565;DHT22;30275;51.822;-0.326;2022-12-07T13:56:37;5.40;99.90
44565;DHT22;30275;51.822;-0.326;2022-12-07T13:59:10;5.50;99.90
44565;DHT22;30275;51.822;-0.326;2022-12-07T14:01:36;5.60;99.90
44565;DHT22;30275;51.822;-0.326;2022-12-07T14:04:37;5.50;99.90
44565;DHT22;30275;51.822;-0.326;2022-12-07T14:07:27;5.70;99.90
44565;DHT22;30275;51.822;-0.326;2022-12-07T14:10:01;5.70;99.90
44565;DHT22;30275;51.822;-0.326;2022-12-07T14:12:28;5.80;99.90
44565;DHT22;30275;51.822;-0.326;2022-12-07T14:14:55;5.50;99.90
44565;DHT22;30275;51.822;-0.326;2022-12-07T14:17:24;5.40;99.90
44565;DHT22;30275;51.822;-0.326;2022-12-07T14:22:22;5.50;99.90
44565;DHT22;30275;51.822;-0.326;2022-12-07T14:24:48;5.30;99.90
44565;DHT22;30275;51.822;-0.326;2022-12-07T14:27:23;5.30;99.90
44565;DHT22;30275;51.822;-0.326;2022-12-07T14:29:51;5.30;99.90
44565;DHT22;30275;51.822;-0.326;2022-12-07T14:32:28;5.20;99.90
44565;DHT22;30275;51.822;-0.326;2022-12-07T14:37:24;4.80;99.90
44565;DHT22;30275;51.822;-0.326;2022-12-07T14:39:50;4.80;99.90
44565;DHT22;30275;51.822;-0.326;2022-12-07T14:42:16;4.70;99.90
44565;DHT22;30275;51.822;-0.326;2022-12-07T14:44:42;4.70;99.90
44565;DHT22;30275;51.822;-0.326;2022-12-07T14:47:11;4.60;99.90
44565;DHT22;30275;51.822;-0.326;2022-12-07T14:49:37;4.70;99.90
44565;DHT22;30275;51.822;-0.326;2022-12-07T14:52:03;4.80;99.90
44565;DHT22;30275;51.822;-0.326;2022-12-07T14:54:31;4.80;99.90
44565;DHT22;30275;51.822;-0.326;2022-12-07T14:56:57;4.90;99.90
44565;DHT22;30275;51.822;-0.326;2022-12-07T14:59:23;4.90;99.90
44565;DHT22;30275;51.822;-0.326;2022-12-07T15:01:52;4.80;99.90
44565;DHT22;30275;51.822;-0.326;2022-12-07T15:04:17;4.80;99.90
44565;DHT22;30275;51.822;-0.326;2022-12-07T15:06:58;4.70;99.90
44565;DHT22;30275;51.822;-0.326;2022-12-07T15:09:23;4.50;99.90
44565;DHT22;30275;51.822;-0.326;2022-12-07T15:11:49;4.20;99.90
44565;DHT22;30275;51.822;-0.326;2022-12-07T15:14:15;4.10;99.90
44565;DHT22;30275;51.822;-0.326;2022-12-07T15:16:42;4.10;99.90
44565;DHT22;30275;51.822;-0.326;2022-12-07T15:19:19;4.10;99.90
44565;DHT22;30275;51.822;-0.326;2022-12-07T15:21:46;4.10;99.90
44565;DHT22;30275;51.822;-0.326;2022-12-07T15:24:12;4.10;99.90
44565;DHT22;30275;51.822;-0.326;2022-12-07T15:26:39;4.10;99.90
44565;DHT22;30275;51.822;-0.326;2022-12-07T15:29:05;4.00;99.90
44565;DHT22;30275;51.822;-0.326;2022-12-07T15:31:32;4.00;99.90
44565;DHT22;30275;51.822;-0.326;2022-12-07T15:33:58;3.80;99.90
44565;DHT22;30275;51.822;-0.326;2022-12-07T15:36:26;3.70;99.90
44565;DHT22;30275;51.822;-0.326;2022-12-07T15:38:51;3.70;99.90
44565;DHT22;30275;51.822;-0.326;2022-12-07T15:41:18;3.60;99.90
44565;DHT22;30275;51.822;-0.326;2022-12-07T15:43:44;3.50;99.90
44565;DHT22;30275;51.822;-0.326;2022-12-07T15:46:32;3.30;99.90
44565;DHT22;30275;51.822;-0.326;2022-12-07T15:48:58;3.30;99.90
44565;DHT22;30275;51.822;-0.326;2022-12-07T15:51:24;3.20;99.90
44565;DHT22;30275;51.822;-0.326;2022-12-07T15:53:50;3.10;99.90
44565;DHT22;30275;51.822;-0.326;2022-12-07T15:56:16;2.90;99.90
44565;DHT22;30275;51.822;-0.326;2022-12-07T15:58:42;2.90;99.90
44565;DHT22;30275;51.822;-0.326;2022-12-07T16:01:12;2.80;99.90
44565;DHT22;30275;51.822;-0.326;2022-12-07T16:03:38;2.80;99.90
44565;DHT22;30275;51.822;-0.326;2022-12-07T16:06:04;2.70;99.90
44565;DHT22;30275;51.822;-0.326;2022-12-07T16:08:29;2.70;99.90
44565;DHT22;30275;51.822;-0.326;2022-12-07T16:10:55;2.50;99.90
44565;DHT22;30275;51.822;-0.326;2022-12-07T16:13:21;2.50;99.90
44565;DHT22;30275;51.822;-0.326;2022-12-07T16:15:47;2.50;99.90
44565;DHT22;30275;51.822;-0.326;2022-12-07T16:18:12;2.40;99.90
44565;DHT22;30275;51.822;-0.326;2022-12-07T16:20:38;2.40;99.90
44565;DHT22;30275;51.822;-0.326;2022-12-07T16:23:03;2.30;99.90
44565;DHT22;30275;51.822;-0.326;2022-12-07T16:25:29;2.20;99.90
44565;DHT22;30275;51.822;-0.326;2022-12-07T16:27:55;2.20;99.90
44565;DHT22;30275;51.822;-0.326;2022-12-07T16:30:20;2.20;99.90
44565;DHT22;30275;51.822;-0.326;2022-12-07T16:32:46;2.20;99.90
44565;DHT22;30275;51.822;-0.326;2022-12-07T16:35:12;2.10;99.90
44565;DHT22;30275;51.822;-0.326;2022-12-07T16:37:38;2.10;99.90
44565;DHT22;30275;51.822;-0.326;2022-12-07T16:40:05;2.10;99.90
44565;DHT22;30275;51.822;-0.326;2022-12-07T16:42:34;2.00;99.90
44565;DHT22;30275;51.822;-0.326;2022-12-07T16:45:00;2.00;99.90
44565;DHT22;30275;51.822;-0.326;2022-12-07T16:47:26;2.00;99.90
44565;DHT22;30275;51.822;-0.326;2022-12-07T16:49:51;2.00;99.90
44565;DHT22;30275;51.822;-0.326;2022-12-07T16:52:18;1.90;99.90
44565;DHT22;30275;51.822;-0.326;2022-12-07T16:54:44;1.90;99.90
44565;DHT22;30275;51.822;-0.326;2022-12-07T16:57:10;1.90;99.90
44565;DHT22;30275;51.822;-0.326;2022-12-07T16:59:35;1.90;99.90
44565;DHT22;30275;51.822;-0.326;2022-12-07T17:02:01;1.90;99.90
44565;DHT22;30275;51.822;-0.326;2022-12-07T17:04:27;1.80;99.90
44565;DHT22;30275;51.822;-0.326;2022-12-07T17:06:53;1.60;99.90
44565;DHT22;30275;51.822;-0.326;2022-12-07T17:09:19;1.40;99.90
44565;DHT22;30275;51.822;-0.326;2022-12-07T17:11:45;1.40;99.90
44565;DHT22;30275;51.822;-0.326;2022-12-07T17:14:11;1.40;99.90
44565;DHT22;30275;51.822;-0.326;2022-12-07T17:16:55;1.30;99.90
44565;DHT22;30275;51.822;-0.326;2022-12-07T17:19:21;1.20;99.90
44565;DHT22;30275;51.822;-0.326;2022-12-07T17:21:46;1.10;99.90
44565;DHT22;30275;51.822;-0.326;2022-12-07T17:24:16;1.10;99.90
44565;DHT22;30275;51.822;-0.326;2022-12-07T17:26:44;1.10;99.90
44565;DHT22;30275;51.822;-0.326;2022-12-07T17:29:12;1.30;99.90
44565;DHT22;30275;51.822;-0.326;2022-12-07T17:31:39;1.40;99.90
44565;DHT22;30275;51.822;-0.326;2022-12-07T17:34:09;1.50;99.90
44565;DHT22;30275;51.822;-0.326;2022-12-07T17:36:35;1.30;99.90